Time;durP1;ratioP1;P1;durP2;ratioP2;P2;SDS_P1;SDS_P2;PMS_P1;PMS_P2;Temp;Humidity;BMP_temperature;BMP_pressure;BME280_temperature;BME280_humidity;BME280_pressure;Samples;Min_cycle;Max_cycle;Signal;HPM_P1;HPM_P2
2022/02/07 00:00:22;;;;;;;1.45;0.10;;;4.70;89.90;;;;;;5054191;28;20039;-76
2022/02/07 00:05:29;;;;;;;0.08;0.08;;;4.70;90.00;;;;;;5053872;28;20035;-75
2022/02/07 00:07:56;;;;;;;0.45;0.00;;;4.60;89.00;;;;;;5053599;28;20049;-77
2022/02/07 00:10:22;;;;;;;0.75;0.00;;;4.60;89.70;;;;;;5053680;28;20035;-76
2022/02/07 00:12:48;;;;;;;0.20;0.20;;;4.70;89.70;;;;;;5053973;28;20087;-76
2022/02/07 00:15:16;;;;;;;0.20;0.10;;;4.70;90.50;;;;;;5053699;28;20461;-77
2022/02/07 00:17:42;;;;;;;0.15;0.00;;;4.80;90.80;;;;;;5053597;28;20025;-77
2022/02/07 00:20:14;;;;;;;0.10;0.10;;;4.80;91.30;;;;;;5053619;28;20025;-79
2022/02/07 00:22:39;;;;;;;1.90;0.15;;;4.80;91.70;;;;;;5053547;28;20021;-78
2022/02/07 00:25:06;;;;;;;0.10;0.10;;;4.80;91.80;;;;;;5053479;28;20021;-78
2022/02/07 00:27:32;;;;;;;2.38;0.28;;;4.80;92.60;;;;;;5053378;28;20033;-77
2022/02/07 00:29:57;;;;;;;0.63;0.30;;;4.70;93.60;;;;;;5053095;28;20404;-77
2022/02/07 00:32:23;;;;;;;1.30;0.20;;;4.60;94.30;;;;;;5053310;28;20029;-78
2022/02/07 00:34:49;;;;;;;1.00;0.15;;;4.60;94.80;;;;;;5053417;28;20029;-77
2022/02/07 00:37:14;;;;;;;0.10;0.10;;;4.20;89.80;;;;;;5053235;28;20477;-77
2022/02/07 00:39:49;;;;;;;0.00;0.00;;;3.70;88.90;;;;;;5053323;28;20083;-77
2022/02/07 00:42:24;;;;;;;0.63;0.30;;;3.20;89.50;;;;;;5053199;28;20049;-76
2022/02/07 00:44:50;;;;;;;0.10;0.00;;;2.90;91.20;;;;;;5053178;28;20029;-78
2022/02/07 00:47:16;;;;;;;0.20;0.20;;;2.80;93.30;;;;;;5053370;28;20135;-77
2022/02/07 00:49:42;;;;;;;0.10;0.10;;;2.70;92.90;;;;;;5053049;28;20393;-78
2022/02/07 00:52:08;;;;;;;0.00;0.00;;;2.70;93.50;;;;;;5053052;28;20052;-79
2022/02/07 00:54:33;;;;;;;0.45;0.10;;;2.60;93.70;;;;;;5052955;28;20060;-78
2022/02/07 00:56:59;;;;;;;0.03;0.00;;;2.70;94.00;;;;;;5053121;28;20052;-78
2022/02/07 00:59:25;;;;;;;0.00;0.00;;;2.70;93.70;;;;;;5052987;28;20025;-77
2022/02/07 01:01:50;;;;;;;0.20;0.08;;;2.70;93.60;;;;;;5052970;28;20389;-77
2022/02/07 01:04:16;;;;;;;0.22;0.05;;;2.80;93.20;;;;;;5052926;28;20017;-77
2022/02/07 01:06:41;;;;;;;0.00;0.00;;;2.80;93.10;;;;;;5052877;28;20119;-75
2022/02/07 01:54:07;;;;;;;0.30;0.10;;;2.90;85.80;;;;;;5056486;28;20491;-77
2022/02/07 01:56:32;;;;;;;0.00;0.00;;;2.90;87.20;;;;;;5056136;28;20028;-78
2022/02/07 01:58:58;;;;;;;0.15;0.15;;;2.80;88.20;;;;;;5056232;28;20024;-76
2022/02/07 02:01:24;;;;;;;0.90;0.20;;;2.80;88.60;;;;;;5056325;28;20033;-76
2022/02/07 02:03:49;;;;;;;2.38;0.10;;;2.80;88.90;;;;;;5056187;28;20023;-75
2022/02/07 02:06:15;;;;;;;0.17;0.17;;;2.80;89.40;;;;;;5056139;28;20057;-77
2022/02/07 02:08:41;;;;;;;0.20;0.00;;;2.80;89.50;;;;;;5054796;28;20143;-77
2022/02/07 02:11:07;;;;;;;0.50;0.10;;;2.70;90.10;;;;;;5056016;28;20035;-77
2022/02/07 02:14:14;;;;;;;0.28;0.17;;;2.80;89.50;;;;;;5056062;28;20115;-77
2022/02/07 02:37:52;;;;;;;0.93;0.20;;;2.80;89.10;;;;;;5055606;28;20533;-78
2022/02/07 02:45:42;;;;;;;0.57;0.30;;;2.70;89.20;;;;;;5055644;28;20044;-78
2022/02/07 02:48:16;;;;;;;1.67;0.50;;;2.60;89.90;;;;;;5055345;28;20047;-78
2022/02/07 02:50:43;;;;;;;2.85;0.40;;;2.60;90.10;;;;;;5055448;28;20480;-76
2022/02/07 02:53:11;;;;;;;2.83;0.40;;;2.60;89.50;;;;;;5055295;28;20025;-79
2022/02/07 02:55:39;;;;;;;2.38;0.43;;;2.60;89.50;;;;;;5055203;28;20066;-77
2022/02/07 02:58:07;;;;;;;2.78;0.50;;;2.50;90.00;;;;;;5055193;28;20021;-78
2022/02/07 03:00:33;;;;;;;1.65;0.52;;;2.50;89.90;;;;;;5055158;28;20025;-77
2022/02/07 03:02:59;;;;;;;3.88;0.55;;;2.60;89.70;;;;;;5055160;28;20027;-75
2022/02/07 03:05:25;;;;;;;0.60;0.60;;;2.60;89.70;;;;;;5055026;28;20025;-76
2022/02/07 03:07:51;;;;;;;3.40;1.13;;;2.50;89.60;;;;;;5055102;28;20064;-77
2022/02/07 03:10:31;;;;;;;4.55;0.90;;;2.50;89.70;;;;;;5054901;28;20069;-77
2022/02/07 03:13:10;;;;;;;4.35;0.65;;;2.60;89.20;;;;;;5055004;28;20029;-77
2022/02/07 03:18:20;;;;;;;2.00;0.60;;;2.70;88.80;;;;;;5055097;28;20451;-77
2022/02/07 03:20:46;;;;;;;2.45;0.70;;;2.70;88.20;;;;;;5054792;28;20024;-77
2022/02/07 03:23:12;;;;;;;2.50;0.60;;;2.70;87.50;;;;;;5054673;28;20066;-77
2022/02/07 03:25:37;;;;;;;4.63;0.50;;;2.70;87.70;;;;;;5054702;28;20032;-77
2022/02/07 03:28:03;;;;;;;4.88;1.00;;;2.80;87.10;;;;;;5054333;28;20416;-76
2022/02/07 03:30:29;;;;;;;2.28;0.85;;;2.80;86.70;;;;;;5054500;28;20162;-77
2022/02/07 03:32:55;;;;;;;5.88;1.30;;;2.80;86.50;;;;;;5054495;28;20021;-75
2022/02/07 03:35:21;;;;;;;1.52;0.63;;;2.70;85.70;;;;;;5054360;28;20025;-78
2022/02/07 03:37:47;;;;;;;3.90;0.60;;;2.80;85.40;;;;;;5054436;28;20052;-77
2022/02/07 03:40:12;;;;;;;5.63;0.65;;;2.90;85.00;;;;;;5054366;28;20465;-76
2022/02/07 03:42:38;;;;;;;6.20;0.98;;;2.90;84.30;;;;;;5053758;28;20354;-76
2022/02/07 03:45:05;;;;;;;3.40;1.15;;;2.90;84.30;;;;;;5054278;28;20532;-77
2022/02/07 03:47:31;;;;;;;3.97;1.05;;;2.90;83.80;;;;;;5054213;28;20543;-78
2022/02/07 03:49:57;;;;;;;5.95;1.23;;;2.90;83.30;;;;;;5054153;28;20044;-78
2022/02/07 03:52:23;;;;;;;4.65;0.80;;;2.90;83.60;;;;;;5054035;28;20029;-77
2022/02/07 03:54:49;;;;;;;12.82;1.83;;;2.90;83.70;;;;;;5054073;28;20036;-78
2022/02/07 03:57:16;;;;;;;4.60;1.02;;;2.90;83.60;;;;;;5052742;28;20017;-77
2022/02/07 03:59:42;;;;;;;5.55;0.80;;;2.90;83.00;;;;;;5053979;28;20024;-77
2022/02/07 04:02:07;;;;;;;3.83;0.82;;;2.90;83.10;;;;;;5053810;28;20025;-77
2022/02/07 04:04:33;;;;;;;7.65;1.00;;;2.90;83.40;;;;;;5053798;28;20111;-76
2022/02/07 04:06:59;;;;;;;4.78;1.10;;;2.90;83.80;;;;;;5053867;28;20020;-75
2022/02/07 04:09:31;;;;;;;5.88;1.00;;;2.90;84.50;;;;;;5053686;28;20025;-76
2022/02/07 04:12:04;;;;;;;4.75;1.20;;;2.90;85.30;;;;;;5053756;28;20039;-77
2022/02/07 04:14:30;;;;;;;7.05;1.35;;;2.80;85.90;;;;;;5053986;28;20373;-78
2022/02/07 04:16:55;;;;;;;6.70;1.38;;;2.70;87.60;;;;;;5053679;28;20028;-77
2022/02/07 04:19:23;;;;;;;5.35;1.20;;;2.30;89.50;;;;;;5053557;28;20374;-77
2022/02/07 04:21:51;;;;;;;6.47;1.67;;;2.10;90.90;;;;;;5053560;28;20020;-77
2022/02/07 04:24:18;;;;;;;6.72;1.30;;;2.00;91.80;;;;;;5053586;28;20032;-78
2022/02/07 04:26:43;;;;;;;7.15;0.90;;;2.00;92.00;;;;;;5053441;28;20021;-77
2022/02/07 04:29:09;;;;;;;1.95;0.50;;;2.00;91.40;;;;;;5053251;28;20522;-77
2022/02/07 04:31:35;;;;;;;4.70;0.63;;;1.80;90.90;;;;;;5053405;28;20037;-77
2022/02/07 04:34:01;;;;;;;1.50;0.77;;;1.70;91.70;;;;;;5053369;28;20032;-77
2022/02/07 04:36:26;;;;;;;0.73;0.30;;;1.80;92.00;;;;;;5053204;28;20048;-77
2022/02/07 04:38:52;;;;;;;1.63;0.35;;;1.60;92.20;;;;;;5053216;28;20017;-77
2022/02/07 04:41:17;;;;;;;1.52;0.30;;;1.50;93.40;;;;;;5053123;28;20063;-78
2022/02/07 04:44:08;;;;;;;0.13;0.10;;;1.50;93.10;;;;;;5053125;28;20465;-77
2022/02/07 04:59:20;;;;;;;0.50;0.22;;;1.70;89.50;;;;;;5052930;28;20075;-77
2022/02/07 05:01:56;;;;;;;1.75;0.17;;;1.80;88.10;;;;;;5052922;28;20057;-77
2022/02/07 05:04:31;;;;;;;0.32;0.20;;;1.80;87.20;;;;;;5052870;28;20468;-77
2022/02/07 05:15:09;;;;;;;0.40;0.10;;;2.00;87.00;;;;;;5052836;28;20028;-77
2022/02/07 05:17:37;;;;;;;1.85;0.50;;;2.00;87.20;;;;;;5052763;28;20025;-77
2022/02/07 05:20:08;;;;;;;2.00;0.20;;;2.00;87.20;;;;;;5052861;28;20508;-78
2022/02/07 05:22:34;;;;;;;1.27;0.20;;;2.00;87.30;;;;;;5052671;28;20041;-77
2022/02/07 05:25:00;;;;;;;1.30;0.40;;;2.00;87.50;;;;;;5052779;28;20104;-77
2022/02/07 05:27:25;;;;;;;1.83;0.70;;;2.10;86.40;;;;;;5052559;28;20512;-77
2022/02/07 05:29:51;;;;;;;1.85;0.45;;;2.10;86.60;;;;;;5052414;28;20049;-77
2022/02/07 05:32:17;;;;;;;1.42;0.65;;;2.10;85.50;;;;;;5052635;28;20029;-78
2022/02/07 05:34:43;;;;;;;1.83;0.40;;;2.00;85.50;;;;;;5052769;28;20377;-78
2022/02/07 05:37:14;;;;;;;0.70;0.60;;;2.10;85.20;;;;;;5052486;28;20025;-77
2022/02/07 05:39:42;;;;;;;1.00;0.32;;;2.10;85.50;;;;;;5052802;28;20452;-77
2022/02/07 05:42:08;;;;;;;1.52;0.77;;;2.10;85.60;;;;;;5052561;28;20025;-76
2022/02/07 05:44:37;;;;;;;1.40;0.65;;;2.10;85.50;;;;;;5052479;28;20041;-77
2022/02/07 05:47:04;;;;;;;2.17;0.60;;;2.10;84.90;;;;;;5052633;28;20028;-78
2022/02/07 05:49:29;;;;;;;3.75;0.70;;;2.10;84.50;;;;;;5052500;28;20071;-77
2022/02/07 05:51:55;;;;;;;5.38;1.40;;;2.00;84.10;;;;;;5052421;28;20029;-77
2022/02/07 05:54:21;;;;;;;3.58;0.90;;;2.00;83.90;;;;;;5052413;28;20109;-78
2022/02/07 05:56:47;;;;;;;3.22;1.05;;;1.90;84.10;;;;;;5051223;28;20017;-78
2022/02/07 05:59:13;;;;;;;4.68;0.88;;;1.90;84.60;;;;;;5052395;28;20029;-77
2022/02/07 06:01:39;;;;;;;6.68;2.25;;;1.90;84.30;;;;;;5052399;28;20099;-77
2022/02/07 06:04:05;;;;;;;9.13;2.38;;;1.90;84.80;;;;;;5052281;28;20040;-78
2022/02/07 06:06:30;;;;;;;4.07;1.30;;;1.80;84.60;;;;;;5054348;28;20029;-76
2022/02/07 06:08:56;;;;;;;12.10;1.60;;;1.80;84.40;;;;;;5056130;28;20059;-78
2022/02/07 06:11:22;;;;;;;9.65;1.52;;;1.80;84.00;;;;;;5055977;28;20029;-78
2022/02/07 06:13:47;;;;;;;4.55;1.10;;;1.70;84.20;;;;;;5055674;28;20024;-78
2022/02/07 06:16:16;;;;;;;7.03;1.80;;;1.70;84.10;;;;;;5055737;28;20087;-78
2022/02/07 06:18:42;;;;;;;7.15;1.00;;;1.70;84.10;;;;;;5055775;28;20143;-80
2022/02/07 06:21:11;;;;;;;3.45;1.02;;;1.70;83.80;;;;;;5055616;28;20039;-78
2022/02/07 06:23:36;;;;;;;3.88;1.10;;;1.70;84.10;;;;;;5055518;28;20108;-78
2022/02/07 06:26:02;;;;;;;5.75;0.80;;;1.70;83.80;;;;;;5055207;28;20056;-76
2022/02/07 06:28:27;;;;;;;2.45;1.02;;;1.70;83.70;;;;;;5055291;28;20506;-77
2022/02/07 06:30:53;;;;;;;5.15;1.05;;;1.70;83.90;;;;;;5054934;28;20108;-78
2022/02/07 06:33:19;;;;;;;6.85;1.48;;;1.80;83.50;;;;;;5055233;28;20430;-78
2022/02/07 06:35:45;;;;;;;8.95;2.30;;;1.80;83.00;;;;;;5055140;28;20025;-78
2022/02/07 06:38:10;;;;;;;17.42;1.70;;;1.90;83.10;;;;;;5055114;28;20021;-77
2022/02/07 06:40:36;;;;;;;4.07;0.90;;;1.90;83.10;;;;;;5055096;28;20041;-77
2022/02/07 06:43:01;;;;;;;9.40;2.03;;;1.80;82.70;;;;;;5055218;28;20051;-79
2022/02/07 06:45:27;;;;;;;6.68;1.80;;;1.70;83.20;;;;;;5055179;28;20523;-77
2022/02/07 06:47:52;;;;;;;6.72;1.60;;;1.80;82.80;;;;;;5055369;28;20028;-77
2022/02/07 06:50:18;;;;;;;4.32;1.30;;;1.80;83.00;;;;;;5053693;28;20499;-77
2022/02/07 06:52:43;;;;;;;4.70;1.10;;;1.80;82.60;;;;;;5054947;28;20028;-76
2022/02/07 06:55:09;;;;;;;5.95;1.55;;;1.80;82.40;;;;;;5053595;28;20021;-77
2022/02/07 06:57:36;;;;;;;14.20;1.35;;;1.70;82.50;;;;;;5054971;28;20507;-78
2022/02/07 07:00:06;;;;;;;7.68;1.55;;;1.80;82.60;;;;;;5055014;28;20023;-78
2022/02/07 07:02:32;;;;;;;11.40;2.20;;;1.80;82.50;;;;;;5054813;28;20905;-78
2022/02/07 07:05:04;;;;;;;9.52;2.60;;;1.80;81.80;;;;;;5054630;28;20379;-78
2022/02/07 07:07:29;;;;;;;6.57;2.15;;;1.80;82.10;;;;;;5054705;28;20515;-78
2022/02/07 07:09:55;;;;;;;6.15;1.45;;;1.80;82.30;;;;;;5054526;28;20037;-76
2022/02/07 07:12:20;;;;;;;5.75;1.65;;;1.70;82.70;;;;;;5054612;28;20025;-77
2022/02/07 07:15:12;;;;;;;10.70;1.40;;;1.60;82.80;;;;;;5054592;28;20025;-77
2022/02/07 07:17:32;;;;;;;;;;;1.60;83.30;;;;;;5053367;28;20540;-78
2022/02/07 07:20:02;;;;;;;;;;;1.50;83.20;;;;;;5053455;28;20000;-77
2022/02/07 07:22:27;;;;;;;8.88;1.92;;;1.50;83.50;;;;;;5054054;28;19909;-78
2022/02/07 07:24:53;;;;;;;10.02;2.38;;;1.50;83.10;;;;;;5054505;28;20370;-77
2022/02/07 07:27:26;;;;;;;19.08;4.43;;;1.60;82.80;;;;;;5054351;28;20366;-78
2022/02/07 07:29:52;;;;;;;14.20;3.60;;;1.70;83.10;;;;;;5052732;28;20067;-77
2022/02/07 07:32:22;;;;;;;16.33;3.35;;;1.70;83.20;;;;;;5054160;28;20528;-76
2022/02/07 07:34:47;;;;;;;9.48;1.92;;;1.80;83.00;;;;;;5054330;28;20018;-77
2022/02/07 07:37:13;;;;;;;13.13;3.08;;;1.70;83.00;;;;;;5054656;28;20081;-77
2022/02/07 07:39:39;;;;;;;13.30;3.45;;;1.80;83.10;;;;;;5054124;28;20036;-77
2022/02/07 07:42:04;;;;;;;8.32;2.70;;;1.80;82.50;;;;;;5054305;28;20021;-78
2022/02/07 07:44:34;;;;;;;15.85;1.88;;;1.90;82.30;;;;;;5054218;28;20025;-79
2022/02/07 07:47:08;;;;;;;4.38;1.20;;;1.90;82.20;;;;;;5054251;28;20021;-78
2022/02/07 07:49:42;;;;;;;6.53;1.35;;;2.00;81.80;;;;;;5054158;28;20068;-74
2022/02/07 07:52:13;;;;;;;8.70;1.60;;;2.00;81.90;;;;;;5052908;28;20032;-75
2022/02/07 08:02:37;;;;;;;8.52;1.77;;;2.00;81.20;;;;;;5054284;28;20495;-77
2022/02/07 08:05:10;;;;;;;11.23;2.10;;;2.00;81.60;;;;;;5053703;28;20021;-76
2022/02/07 08:07:39;;;;;;;10.70;2.28;;;2.00;82.50;;;;;;5052493;28;20024;-76
2022/02/07 08:12:45;;;;;;;8.80;1.88;;;2.00;83.70;;;;;;5053853;28;20511;-77
2022/02/07 08:15:14;;;;;;;12.93;2.47;;;1.90;84.10;;;;;;5052496;28;20401;-81
2022/02/07 08:17:40;;;;;;;7.85;2.03;;;2.40;92.90;;;;;;5035494;28;20128;-82
2022/02/07 08:20:06;;;;;;;12.80;2.25;;;3.00;89.30;;;;;;5052439;28;20118;-78
2022/02/07 08:22:32;;;;;;;10.73;3.15;;;3.40;86.30;;;;;;5052248;28;20021;-78
2022/02/07 08:25:00;;;;;;;8.80;2.90;;;3.70;85.30;;;;;;5035843;28;20551;-78
2022/02/07 08:27:29;;;;;;;15.15;2.90;;;4.10;84.00;;;;;;5052251;28;20103;-78
2022/02/07 08:29:56;;;;;;;19.40;3.65;;;4.20;80.00;;;;;;5036226;28;20497;-80
2022/02/07 08:32:22;;;;;;;11.23;2.75;;;4.40;78.80;;;;;;5052250;28;20025;-79
2022/02/07 08:34:48;;;;;;;12.32;2.75;;;4.50;77.70;;;;;;5050862;28;20394;-80
2022/02/07 08:37:15;;;;;;;10.55;2.63;;;4.50;74.90;;;;;;5051664;28;20033;-80
2022/02/07 08:39:42;;;;;;;7.28;1.95;;;4.60;75.70;;;;;;5035611;28;20481;-80
2022/02/07 08:42:08;;;;;;;8.90;2.60;;;4.60;74.90;;;;;;5051545;28;20029;-78
2022/02/07 08:44:34;;;;;;;9.23;2.28;;;4.70;74.40;;;;;;5051996;28;20028;-80
2022/02/07 08:47:00;;;;;;;6.78;2.05;;;4.20;73.30;;;;;;5035487;28;20145;-79
2022/02/07 08:49:26;;;;;;;9.45;2.00;;;4.10;76.90;;;;;;5051540;28;20142;-79
2022/02/07 08:51:54;;;;;;;10.10;3.10;;;4.20;73.60;;;;;;5051189;28;20037;-79
2022/02/07 08:54:25;;;;;;;15.45;2.78;;;3.80;73.90;;;;;;5052863;28;20025;-79
2022/02/07 08:56:57;;;;;;;12.23;2.20;;;3.40;76.10;;;;;;5051473;28;20029;-79
2022/02/07 08:59:30;;;;;;;12.07;2.97;;;3.20;76.70;;;;;;5051533;28;20021;-78
2022/02/07 09:07:14;;;;;;;10.07;3.17;;;2.50;79.50;;;;;;5053186;28;20021;-78
2022/02/07 09:09:42;;;;;;;13.00;3.30;;;2.30;80.70;;;;;;5052817;28;20389;-75
2022/02/07 09:12:08;;;;;;;10.73;2.83;;;2.20;81.10;;;;;;5052744;28;20024;-76
2022/02/07 09:14:42;;;;;;;12.07;2.20;;;2.30;81.30;;;;;;5051192;28;20096;-79
2022/02/07 09:17:10;;;;;;;8.52;2.00;;;2.30;81.90;;;;;;5051606;28;20025;-76
2022/02/07 09:19:36;;;;;;;12.40;2.42;;;2.30;81.90;;;;;;5050937;28;20025;-76
2022/02/07 09:22:06;;;;;;;13.90;2.72;;;2.30;82.40;;;;;;5051334;28;20092;-77
2022/02/07 09:24:33;;;;;;;14.68;3.15;;;2.20;82.40;;;;;;5051752;28;20392;-77
2022/02/07 09:26:59;;;;;;;20.77;4.70;;;2.40;82.80;;;;;;5051326;28;20048;-76
2022/02/07 09:29:25;;;;;;;9.40;2.40;;;2.40;82.20;;;;;;5051088;28;20084;-77
2022/02/07 09:31:51;;;;;;;10.63;1.98;;;2.50;81.80;;;;;;5051510;28;20060;-76
2022/02/07 09:34:19;;;;;;;6.57;2.25;;;2.50;81.40;;;;;;5052739;28;20441;-79
2022/02/07 09:36:45;;;;;;;6.72;1.65;;;2.40;81.20;;;;;;5051441;28;20116;-80
2022/02/07 09:39:11;;;;;;;10.48;2.55;;;2.40;80.60;;;;;;5051150;28;20063;-76
2022/02/07 09:41:36;;;;;;;8.68;2.70;;;2.40;81.10;;;;;;5056286;28;20020;-77
2022/02/07 09:44:06;;;;;;;15.82;2.78;;;2.20;82.30;;;;;;5055596;28;20362;-78
2022/02/07 09:46:43;;;;;;;9.95;2.63;;;2.20;82.40;;;;;;5055295;28;20029;-78
2022/02/07 09:49:10;;;;;;;7.88;2.45;;;2.20;82.60;;;;;;5055003;28;20029;-76
2022/02/07 09:51:37;;;;;;;12.45;2.30;;;2.20;82.00;;;;;;5056263;28;20028;-76
2022/02/07 09:54:03;;;;;;;11.40;2.58;;;2.30;81.60;;;;;;5055047;28;20516;-78
2022/02/07 09:56:28;;;;;;;15.32;2.65;;;2.30;81.60;;;;;;5055304;28;20047;-79
2022/02/07 09:58:55;;;;;;;20.63;2.72;;;2.20;82.60;;;;;;5056314;28;20025;-76
2022/02/07 10:01:28;;;;;;;7.68;2.20;;;2.20;82.10;;;;;;5055012;28;20021;-79
2022/02/07 10:04:03;;;;;;;15.73;3.22;;;2.30;82.20;;;;;;5056290;28;20051;-77
2022/02/07 10:06:36;;;;;;;20.50;2.88;;;2.50;81.80;;;;;;5054712;28;20025;-78
2022/02/07 10:12:03;;;;;;;11.85;2.63;;;2.40;81.60;;;;;;5056191;28;20385;-78
2022/02/07 10:14:42;;;;;;;;;;;2.50;81.60;;;;;;5054933;28;20104;-78
2022/02/07 10:38:58;;;;;;;16.38;3.20;;;2.40;79.40;;;;;;5055319;28;20027;-75
2022/02/07 10:41:42;;;;;;;20.73;3.22;;;2.40;79.80;;;;;;5054100;28;20481;-79
2022/02/07 10:44:37;;;;;;;12.82;2.95;;;2.40;79.80;;;;;;5055263;28;20114;-77
2022/02/07 10:47:12;;;;;;;9.93;2.92;;;2.40;80.00;;;;;;5054103;28;20029;-79
2022/02/07 10:50:06;;;;;;;14.27;2.40;;;2.60;80.40;;;;;;5054100;28;20033;-77
2022/02/07 10:53:01;;;;;;;9.50;1.90;;;2.60;78.50;;;;;;5054019;28;20036;-79
2022/02/07 10:55:29;;;;;;;19.73;4.18;;;2.60;78.10;;;;;;5037033;28;20037;-78
2022/02/07 10:58:00;;;;;;;26.27;5.43;;;2.60;79.00;;;;;;5053944;28;20370;-78
2022/02/07 11:00:36;;;;;;;21.55;5.10;;;2.50;80.00;;;;;;5053784;28;20112;-78
2022/02/07 11:03:12;;;;;;;18.25;3.40;;;2.50;79.00;;;;;;5053662;28;20025;-79
2022/02/07 11:05:43;;;;;;;16.48;4.10;;;2.40;79.00;;;;;;5053372;28;20029;-77
2022/02/07 11:08:26;;;;;;;17.48;4.18;;;2.40;78.90;;;;;;5053298;28;20362;-75
2022/02/07 11:16:20;;;;;;;28.85;7.55;;;2.50;78.60;;;;;;5054872;28;20043;-78
2022/02/07 11:19:02;;;;;;;27.52;6.13;;;2.40;79.40;;;;;;5054437;28;20033;-78
2022/02/07 11:21:48;;;;;;;16.98;4.65;;;2.40;79.30;;;;;;5053053;28;20503;-79
2022/02/07 11:26:54;;;;;;;13.05;2.97;;;2.50;79.50;;;;;;5072204;28;20013;-80
2022/02/07 11:29:48;;;;;;;14.45;2.92;;;2.60;79.20;;;;;;5074477;28;20056;-76
2022/02/07 11:32:39;;;;;;;15.30;4.22;;;2.50;79.00;;;;;;5070216;28;20036;-77
2022/02/07 11:35:16;;;;;;;22.58;5.45;;;2.50;78.90;;;;;;5065960;28;20047;-78
2022/02/07 11:37:48;;;;;;;18.15;4.15;;;2.50;78.80;;;;;;5053705;28;20017;-76
2022/02/07 11:40:33;;;;;;;13.05;3.50;;;2.60;78.50;;;;;;5052917;28;20036;-79
2022/02/07 11:43:13;;;;;;;12.85;2.42;;;2.70;77.90;;;;;;5054371;28;20484;-76
2022/02/07 11:45:53;;;;;;;9.52;1.90;;;2.70;79.60;;;;;;5052419;28;20028;-78
2022/02/07 11:48:26;;;;;;;7.93;2.30;;;2.80;78.00;;;;;;5053435;28;20382;-77
2022/02/07 11:50:58;;;;;;;10.70;2.45;;;2.80;77.50;;;;;;5051685;28;20052;-76
2022/02/07 11:53:41;;;;;;;12.27;2.70;;;2.90;77.00;;;;;;5050747;28;20075;-77
2022/02/07 11:56:47;;;;;;;11.52;2.25;;;3.00;77.50;;;;;;5054084;28;20116;-78
2022/02/07 12:02:20;;;;;;;10.20;2.60;;;3.20;76.50;;;;;;5039774;28;20558;-78
2022/02/07 12:04:48;;;;;;;9.20;2.35;;;3.20;76.90;;;;;;5036242;28;20037;-78
2022/02/07 12:07:27;;;;;;;13.45;2.70;;;3.20;77.40;;;;;;5053152;28;20449;-78
2022/02/07 12:10:03;;;;;;;16.85;2.83;;;3.30;77.60;;;;;;5053851;28;20053;-76
2022/02/07 12:12:43;;;;;;;10.63;3.15;;;3.40;76.00;;;;;;5053307;28;20029;-83
2022/02/07 12:15:34;;;;;;;10.70;2.25;;;3.50;75.40;;;;;;5055610;28;20025;-83
2022/02/07 12:18:12;;;;;;;12.00;2.15;;;3.50;75.60;;;;;;5058468;28;20420;-79
2022/02/07 12:20:39;;;;;;;6.47;1.80;;;3.60;75.10;;;;;;5059631;28;20087;-79
2022/02/07 12:23:04;;;;;;;11.48;1.80;;;3.50;75.40;;;;;;5037876;28;20032;-79
2022/02/07 12:25:30;;;;;;;12.18;2.40;;;3.50;76.00;;;;;;5054322;28;20353;-79
2022/02/07 12:28:00;;;;;;;9.10;3.03;;;3.50;75.80;;;;;;5052432;28;20070;-82
2022/02/07 12:30:43;;;;;;;8.45;2.50;;;3.50;76.30;;;;;;5052423;28;20047;-83
2022/02/07 12:33:09;;;;;;;17.05;3.45;;;3.50;76.30;;;;;;5037819;28;20029;-81
2022/02/07 12:35:34;;;;;;;13.10;2.97;;;3.50;76.40;;;;;;5053411;28;20044;-80
2022/02/07 12:38:00;;;;;;;11.93;2.65;;;3.60;76.40;;;;;;5052618;28;20048;-79
2022/02/07 12:40:30;;;;;;;14.70;2.97;;;3.60;76.60;;;;;;5052416;28;20123;-81
2022/02/07 12:42:56;;;;;;;13.65;2.42;;;3.60;76.40;;;;;;5039316;28;20436;-80
2022/02/07 12:45:37;;;;;;;12.48;2.40;;;3.50;76.50;;;;;;5054475;28;20033;-80
2022/02/07 12:48:18;;;;;;;10.85;3.08;;;3.60;74.90;;;;;;5056384;28;20023;-82
2022/02/07 12:50:49;;;;;;;9.82;1.75;;;3.80;74.50;;;;;;5056098;28;20029;-82
2022/02/07 12:53:20;;;;;;;13.02;2.22;;;3.90;74.40;;;;;;5051802;28;20025;-77
2022/02/07 12:55:57;;;;;;;10.98;2.58;;;4.00;74.00;;;;;;5051273;28;20119;-78
2022/02/07 12:58:35;;;;;;;12.18;3.10;;;4.00;72.60;;;;;;5051201;28;20413;-78
2022/02/07 13:01:17;;;;;;;13.90;2.67;;;3.90;72.80;;;;;;5051681;28;20037;-78
2022/02/07 13:03:54;;;;;;;13.40;2.70;;;3.90;72.30;;;;;;5052994;28;20427;-79
2022/02/07 13:06:30;;;;;;;11.77;2.95;;;3.80;72.00;;;;;;5051640;28;20075;-79
2022/02/07 13:08:58;;;;;;;7.43;2.65;;;3.80;71.90;;;;;;5051641;28;20059;-77
2022/02/07 13:11:30;;;;;;;11.38;2.40;;;3.70;72.40;;;;;;5051308;28;20063;-78
2022/02/07 13:13:58;;;;;;;9.63;2.03;;;3.60;73.60;;;;;;5051022;28;20025;-78
2022/02/07 13:16:32;;;;;;;12.68;1.98;;;3.50;74.40;;;;;;5050877;28;20460;-77
2022/02/07 13:19:10;;;;;;;10.30;2.25;;;3.50;73.10;;;;;;5052757;28;20487;-78
2022/02/07 13:21:40;;;;;;;8.13;1.83;;;3.50;72.50;;;;;;5051192;28;20504;-76
2022/02/07 13:24:18;;;;;;;9.00;2.25;;;3.50;72.50;;;;;;5052860;28;20044;-79
2022/02/07 13:26:49;;;;;;;7.72;1.83;;;3.50;72.80;;;;;;5051629;28;20050;-79
2022/02/07 13:29:27;;;;;;;8.45;2.17;;;3.40;72.50;;;;;;5050938;28;20041;-80
2022/02/07 13:32:00;;;;;;;10.05;2.47;;;3.50;72.80;;;;;;5051346;28;20068;-80
2022/02/07 13:34:29;;;;;;;17.88;2.65;;;3.60;72.30;;;;;;5051255;28;20557;-81
2022/02/07 13:37:05;;;;;;;10.07;2.25;;;3.70;71.00;;;;;;5051522;28;20052;-80
2022/02/07 13:39:32;;;;;;;14.15;2.20;;;3.60;71.10;;;;;;5051252;28;20021;-78
2022/02/07 13:42:01;;;;;;;9.88;2.35;;;3.60;71.30;;;;;;5052083;28;20055;-78
2022/02/07 13:44:27;;;;;;;8.07;1.83;;;3.70;71.00;;;;;;5050965;28;20025;-81
2022/02/07 13:47:00;;;;;;;10.15;1.98;;;3.60;71.30;;;;;;5050903;28;20123;-80
2022/02/07 13:49:25;;;;;;;15.30;2.28;;;3.60;71.60;;;;;;5050920;28;20051;-78
2022/02/07 13:51:52;;;;;;;11.43;2.33;;;3.60;72.40;;;;;;5050992;28;20044;-79
2022/02/07 13:54:30;;;;;;;10.10;1.90;;;3.60;72.70;;;;;;5050714;28;20473;-80
2022/02/07 13:57:00;;;;;;;9.40;2.55;;;3.70;72.10;;;;;;5050611;28;20362;-80
2022/02/07 13:59:35;;;;;;;12.02;2.22;;;3.70;72.40;;;;;;5050563;28;20078;-79
2022/02/07 14:02:00;;;;;;;7.63;1.80;;;3.90;72.70;;;;;;5052248;28;20060;-77
2022/02/07 14:04:27;;;;;;;8.02;2.42;;;4.00;71.90;;;;;;5051997;28;20538;-78
2022/02/07 14:07:11;;;;;;;7.43;1.77;;;4.10;71.20;;;;;;5052365;28;20064;-78
2022/02/07 14:09:39;;;;;;;14.85;2.40;;;4.10;70.80;;;;;;5050769;28;20029;-78
2022/02/07 14:12:07;;;;;;;10.82;2.60;;;4.30;70.90;;;;;;5051112;28;20025;-78
2022/02/07 14:14:33;;;;;;;11.57;2.25;;;4.30;70.10;;;;;;5050513;28;20029;-78
2022/02/07 14:17:01;;;;;;;11.98;2.72;;;5.10;71.50;;;;;;5033627;28;20496;-79
2022/02/07 14:19:46;;;;;;;10.02;2.60;;;8.40;63.70;;;;;;5050604;28;20103;-80
2022/02/07 14:22:12;;;;;;;13.10;2.65;;;11.00;49.50;;;;;;5050862;28;20384;-79
2022/02/07 14:24:40;;;;;;;8.45;2.22;;;13.50;38.40;;;;;;5050682;28;20025;-79
2022/02/07 14:27:10;;;;;;;8.13;2.15;;;14.30;34.80;;;;;;5053055;28;20033;-78
2022/02/07 14:29:38;;;;;;;6.60;2.40;;;15.20;32.70;;;;;;5053837;28;20060;-78
2022/02/07 14:32:04;;;;;;;7.20;2.25;;;15.30;31.20;;;;;;5054389;28;20031;-79
2022/02/07 14:34:29;;;;;;;6.88;2.65;;;15.50;30.90;;;;;;5053865;28;20388;-79
2022/02/07 14:36:55;;;;;;;10.13;2.15;;;14.20;31.60;;;;;;5037471;28;20033;-78
2022/02/07 14:39:22;;;;;;;7.00;2.67;;;13.70;32.00;;;;;;5037095;28;20508;-78
2022/02/07 14:41:50;;;;;;;12.27;3.58;;;11.70;35.00;;;;;;5037742;28;20036;-79
2022/02/07 14:44:22;;;;;;;14.13;3.28;;;10.60;38.70;;;;;;5055192;28;20481;-78
2022/02/07 14:47:04;;;;;;;10.75;3.22;;;9.90;40.20;;;;;;5054308;28;20416;-79
2022/02/07 14:49:30;;;;;;;9.80;2.58;;;8.90;43.30;;;;;;5053724;28;20083;-79
2022/02/07 14:51:55;;;;;;;13.13;3.10;;;8.10;44.80;;;;;;5037375;28;20028;-78
2022/02/07 14:54:23;;;;;;;15.30;4.22;;;8.80;45.70;;;;;;5053915;28;20021;-77
2022/02/07 14:56:48;;;;;;;11.75;2.70;;;9.00;45.30;;;;;;5054066;28;20052;-79
2022/02/07 14:59:16;;;;;;;12.13;2.78;;;9.30;44.50;;;;;;5055188;28;20060;-77
2022/02/07 15:01:44;;;;;;;11.98;2.40;;;9.10;43.70;;;;;;5053839;28;20458;-78
2022/02/07 15:04:10;;;;;;;9.30;2.20;;;8.60;45.20;;;;;;5055150;28;20032;-77
2022/02/07 15:06:35;;;;;;;5.82;1.80;;;9.20;44.10;;;;;;5053713;28;20029;-77
2022/02/07 15:09:02;;;;;;;9.27;1.77;;;11.10;41.20;;;;;;5055024;28;20086;-78
2022/02/07 15:11:27;;;;;;;7.97;1.83;;;12.80;36.50;;;;;;5053548;28;20021;-78
2022/02/07 15:13:53;;;;;;;6.10;2.42;;;14.00;33.30;;;;;;5053689;28;20377;-77
2022/02/07 15:16:19;;;;;;;18.25;2.20;;;14.30;31.50;;;;;;5053612;28;20036;-78
2022/02/07 15:18:45;;;;;;;10.60;2.55;;;14.70;30.10;;;;;;5053636;28;20017;-79
2022/02/07 15:21:10;;;;;;;5.43;2.00;;;13.70;30.80;;;;;;5054170;28;20039;-79
2022/02/07 15:23:38;;;;;;;7.82;2.20;;;14.60;31.10;;;;;;5053290;28;20099;-78
2022/02/07 15:26:03;;;;;;;9.93;3.35;;;15.00;31.30;;;;;;5036791;28;20041;-79
2022/02/07 15:28:29;;;;;;;8.38;2.85;;;16.00;29.10;;;;;;5054165;28;20137;-78
2022/02/07 15:30:55;;;;;;;12.48;4.22;;;16.40;27.40;;;;;;5052591;28;20115;-79
2022/02/07 15:33:30;;;;;;;15.45;4.57;;;17.00;26.10;;;;;;5053257;28;20115;-77